Airfield :
LOGIN :

Register | Disclaimer

   EN    FR    IT 

 










Legend :    VFR   Marginal VFR   IFR   Intensive IFR   Very Intensive IFR
Visi :
Ceiling :
>= 8 km
>= 3000ft
5 to 8 km
1000 to 3000 ft
1500m to 5 km
500 to 1000 ft
800 to 1500m
200 to 500 ft
< 800m
< 200 ft
Symbols :   Thunderstorms  Fog  Heavy snow  Heavy precipitations  Wind > 20 kt
SIGMETs :     Misc.  Thunderstorms  Icing  Turbulence  Mountain Waves  Volcanic Ashes







- Airport Elevation : 26 ft
- IATA code : SYY
- Download approach charts


EGPO - Stornoway

CURRENT METAR :
  • 212250Z AUTO 18013KT 9999 NCD 11/09 Q1011

EXPIRED METARs :
  • 212220Z AUTO 18010KT 9999 NCD 11/09 Q1011
  • 212150Z AUTO 18012KT 9999 NCD 11/09 Q1011
  • 212120Z AUTO 19011KT 9999 NCD 11/08 Q1011
  • 212050Z AUTO 19008KT 9999 NCD 11/08 Q1011
  • 212020Z VRB02KT 9999 FEW018CB 10/08 Q1011
  • 211950Z 18006KT 9999 FEW018CB 10/08 Q1011

TAF TAF EGPO
Valid from the 21 at 21:00 until the 22 at 06:00 UTC


211956Z 2121/2206 17005KT 9999 FEW030
BECMG 2122/2124 16015KT
PROB40
TEMPO 2200/2206 6000 SHRA
ATIS : +44 1851 707 444
No reported NOTAMs for that airfield.



MET'MAP, your aeronautical weather chart ! - Copyright ORBIFLY December 2007 - Disclaimer

ORBIFLY MET'MAP TEAM :

Programming & Development : Alexandra Zaïnal
Concept & Development : Baudouin d'Aumeries
Co-Development & Prog : Marc-Olivier Méhu
Technical & hardware support : Manuel Goepfert

Contact : metmap@orbifly.com




SOURCES & CREDITS :

   NOAA